AirNav   Everest Fuels
 
 367 users online  

2NK2 Cove Neck Heliport
Cove Neck, New York, USA

GOING TO COVE NECK?


FAA INFORMATION EFFECTIVE 18 JUNE 2020

Location

FAA Identifier: 2NK2
Lat/Long: 40-53-01.3540N 073-29-28.4400W
40-53.022567N 073-29.474000W
40.8837094,-73.4912333
(estimated)
Elevation: 10 ft. / 3 m (estimated)
Variation: 13W (1985)
From city: 2 miles NE of COVE NECK, NY
Time zone: UTC -4 (UTC -5 during Standard Time)
Zip code: 11771

Heliport Operations

Heliport use: Private use. Permission required prior to landing
Activation date: 06/1987
Control tower: no
ARTCC: NEW YORK CENTER
FSS: NEW YORK FLIGHT SERVICE STATION
Attendance: UNATNDD
Segmented circle: no

Heliport Communications

WX ASOS at FRG (10 nm S): PHONE 631-752-8129
WX ASOS at HPN (15 nm NW): PHONE 914-288-0216
WX ASOS at LGA (18 nm W): PHONE 718-672-6317
WX ASOS at ISP (18 nm E): 120.725 (631-471-0131)
WX ASOS at JFK (20 nm SW): 128.725 (718-656-0956)

Nearby radio navigation aids

VOR radial/distance  VOR name  Freq  Var
DPKr315/10.1DEER PARK VOR/DME117.7012W
LGAr083/18.2LA GUARDIA VOR/DME113.1012W
JFKr052/19.7KENNEDY VOR/DME115.9012W
BDRr237/23.5BRIDGEPORT VOR/DME108.8012W
CMKr182/24.1CARMEL VOR/DME116.6012W
CRIr059/24.5CANARSIE VOR/DME112.3011W
TEBr096/26.0TETERBORO VOR/DME108.4011W
CCCr278/31.5CALVERTON VOR/DME117.2013W

 
NDB name  Hdg/Dist  Freq  Var  ID
FRIKK010/6.440714WFR ..-. .-.
BABYLON353/13.627514WBBN -... -... -.

Heliport Services

Runway Information

Helipad H1

Dimensions: 125 x 125 ft. / 38 x 38 m
Surface: turf
Traffic pattern: leftleft

Heliport Ownership and Management from official FAA records

Ownership: Privately-owned
Owner: BARRY YAMPOL
297 COVE NECK ROAD
OYSTER BAY, NY 11771

Additional Remarks

FOR CD CTC NEW YORK APCH AT 516-683-2962.

Instrument Procedures

There are no published instrument procedures at 2NK2.

Some nearby airports with instrument procedures:

KFRG - Republic Airport (10 nm S)
KHPN - Westchester County Airport (15 nm NW)
KLGA - LaGuardia Airport (18 nm W)
KISP - Long Island Mac Arthur Airport (18 nm E)
KJFK - John F Kennedy International Airport (20 nm SW)
 
Loc | Ops | Rwys | IFR | FBO | Links
Com | Nav | Svcs | Stats | Notes
Area around 2NK2 (Cove Neck Heliport)
 
Road maps at: MapQuest Bing Google
 
Aerial photo
No photo
 
Sectional chart

 
Airport distance calculator
Flying to Cove Neck Heliport? Find the distance to fly.

From to 2NK2

Sunrise and sunset
Times for 12-Jul-2020
 Local
(UTC-4)
 Zulu
(UTC)
Morning civil twilight05:0209:02
Sunrise05:3409:34
Sunset20:2500:25
Evening civil twilight20:5700:57

Current date and time
Zulu (UTC)  12-Jul-2020 10:58:04
Local (UTC-4)  12-Jul-2020 06:58:04
 
METAR
KFRG 
10nm S 
121053Z AUTO 23008KT 10SM CLR 24/18 A2971 RMK AO2 SLP061 T02440178
KHPN 
14nm NW 
120956Z 25006KT 10SM CLR 21/18 A2968 RMK AO2 SLP046 T02060178 $
KISP 
18nm E 
120956Z 22006KT 10SM FEW050 22/19 A2969 RMK AO2 SLP053 T02170189 $
KLGA 
19nm W 
121051Z 25011G18KT 10SM CLR 24/17 A2970 RMK AO2 SLP056 T02440167
KJFK 
20nm SW 
121051Z 26013KT 10SM CLR 24/18 A2972 RMK AO2 SLP062 T02390178
TAF
KHPN 
14nm NW 
120753Z 1208/1306 26007KT P6SM FEW050 FM121600 25010KT P6SM SCT050 FM122200 24007KT P6SM SCT050 FM130000 23005KT P6SM BKN250 FM130100 VRB03KT P6SM BKN250 AMD NOT SKED
KISP 
18nm E 
120753Z 1208/1306 24008KT P6SM FEW050 FM121600 25012G18KT P6SM FEW050 FM121800 23013G18KT P6SM FEW050 FM122300 22008KT P6SM BKN250
KLGA 
19nm W 
120753Z 1208/1312 26008KT P6SM FEW050 FM121600 25012G18KT P6SM SCT050 FM122300 23010KT P6SM SCT050 FM130300 21007KT P6SM BKN250 FM130900 19005KT P6SM SCT050 BKN150
KJFK 
20nm SW 
120753Z 1208/1312 24012KT P6SM FEW050 FM121600 23012G19KT P6SM SCT050 FM122100 21016KT P6SM SCT050 FM130000 21013KT P6SM FEW050 FM130300 21007KT P6SM BKN250 FM130900 18005KT P6SM SCT050 BKN150
NOTAMs
Click for the latest NOTAMs
NOTAMs are issued by the DoD/FAA and will open in a separate window not controlled by AirNav.

 

 
 

Would you like to see your business listed on this page?

 If your business provides an interesting product or service to pilots, flight crews, aircraft, or users of the Cove Neck Heliport, you should consider listing it here.  To start the listing process, click on the button below
 
Add a business
 

Other Pages about Cove Neck Heliport

Update a link
 
Copyright © AirNav, LLC. All rights reserved. Privacy Policy  Contact